sensor_id;sensor_type;location;lat;lon;timestamp;P1;durP1;ratioP1;P2;durP2;ratioP2
73585;SDS011;61865;50.232;18.614;2023-12-20T03:07:59;12.88;;;6.78;;
73585;SDS011;61865;50.232;18.614;2023-12-20T03:10:22;12.48;;;7.20;;
73585;SDS011;61865;50.232;18.614;2023-12-20T03:12:44;18.23;;;7.38;;
73585;SDS011;61865;50.232;18.614;2023-12-20T03:15:07;11.52;;;7.18;;
73585;SDS011;61865;50.232;18.614;2023-12-20T03:17:29;15.30;;;8.45;;
73585;SDS011;61865;50.232;18.614;2023-12-20T03:19:51;12.18;;;7.75;;
73585;SDS011;61865;50.232;18.614;2023-12-20T03:22:13;12.70;;;8.20;;
73585;SDS011;61865;50.232;18.614;2023-12-20T03:24:37;11.88;;;8.93;;
73585;SDS011;61865;50.232;18.614;2023-12-20T03:26:59;13.20;;;9.30;;
73585;SDS011;61865;50.232;18.614;2023-12-20T03:29:21;14.07;;;9.00;;
73585;SDS011;61865;50.232;18.614;2023-12-20T03:31:43;12.35;;;8.63;;
73585;SDS011;61865;50.232;18.614;2023-12-20T03:34:06;13.45;;;8.93;;
73585;SDS011;61865;50.232;18.614;2023-12-20T03:36:28;16.88;;;9.13;;
73585;SDS011;61865;50.232;18.614;2023-12-20T03:38:50;14.65;;;9.07;;
73585;SDS011;61865;50.232;18.614;2023-12-20T03:41:14;14.32;;;10.02;;
73585;SDS011;61865;50.232;18.614;2023-12-20T03:43:36;18.55;;;12.02;;
73585;SDS011;61865;50.232;18.614;2023-12-20T03:45:57;18.30;;;11.25;;
73585;SDS011;61865;50.232;18.614;2023-12-20T03:48:20;17.88;;;10.73;;
73585;SDS011;61865;50.232;18.614;2023-12-20T03:50:42;14.40;;;9.50;;
73585;SDS011;61865;50.232;18.614;2023-12-20T03:53:04;18.75;;;10.88;;
73585;SDS011;61865;50.232;18.614;2023-12-20T03:55:26;15.43;;;9.23;;
73585;SDS011;61865;50.232;18.614;2023-12-20T03:57:50;13.70;;;9.10;;
73585;SDS011;61865;50.232;18.614;2023-12-20T04:00:12;20.15;;;9.90;;
73585;SDS011;61865;50.232;18.614;2023-12-20T04:02:35;13.57;;;8.80;;
73585;SDS011;61865;50.232;18.614;2023-12-20T04:04:57;14.75;;;9.13;;
73585;SDS011;61865;50.232;18.614;2023-12-20T04:07:18;14.07;;;8.57;;
73585;SDS011;61865;50.232;18.614;2023-12-20T04:09:41;11.00;;;7.10;;
73585;SDS011;61865;50.232;18.614;2023-12-20T04:12:03;13.75;;;7.78;;
73585;SDS011;61865;50.232;18.614;2023-12-20T04:14:27;16.83;;;7.78;;
73585;SDS011;61865;50.232;18.614;2023-12-20T04:16:49;19.27;;;8.23;;
73585;SDS011;61865;50.232;18.614;2023-12-20T04:19:11;13.30;;;8.30;;
73585;SDS011;61865;50.232;18.614;2023-12-20T04:21:33;12.30;;;8.15;;
73585;SDS011;61865;50.232;18.614;2023-12-20T04:23:56;14.98;;;8.35;;
73585;SDS011;61865;50.232;18.614;2023-12-20T04:26:18;13.25;;;8.52;;
73585;SDS011;61865;50.232;18.614;2023-12-20T04:28:40;12.80;;;7.97;;
73585;SDS011;61865;50.232;18.614;2023-12-20T04:31:04;11.77;;;9.10;;
73585;SDS011;61865;50.232;18.614;2023-12-20T04:33:26;14.00;;;9.48;;
73585;SDS011;61865;50.232;18.614;2023-12-20T04:35:48;14.05;;;9.25;;
73585;SDS011;61865;50.232;18.614;2023-12-20T04:38:11;14.38;;;9.57;;
73585;SDS011;61865;50.232;18.614;2023-12-20T04:40:33;16.35;;;10.18;;
73585;SDS011;61865;50.232;18.614;2023-12-20T04:42:55;13.85;;;9.40;;
73585;SDS011;61865;50.232;18.614;2023-12-20T04:45:18;16.42;;;10.75;;
73585;SDS011;61865;50.232;18.614;2023-12-20T04:47:42;14.88;;;10.05;;
73585;SDS011;61865;50.232;18.614;2023-12-20T04:50:07;14.13;;;10.27;;
73585;SDS011;61865;50.232;18.614;2023-12-20T04:52:29;18.40;;;12.20;;
73585;SDS011;61865;50.232;18.614;2023-12-20T04:54:52;17.48;;;11.25;;
73585;SDS011;61865;50.232;18.614;2023-12-20T04:57:14;19.45;;;11.02;;
73585;SDS011;61865;50.232;18.614;2023-12-20T04:59:36;18.55;;;10.63;;
73585;SDS011;61865;50.232;18.614;2023-12-20T05:01:58;15.18;;;10.75;;
73585;SDS011;61865;50.232;18.614;2023-12-20T05:04:22;17.63;;;11.20;;
73585;SDS011;61865;50.232;18.614;2023-12-20T05:06:44;25.08;;;11.40;;
73585;SDS011;61865;50.232;18.614;2023-12-20T05:09:06;18.63;;;11.32;;
73585;SDS011;61865;50.232;18.614;2023-12-20T05:11:29;19.80;;;12.88;;
73585;SDS011;61865;50.232;18.614;2023-12-20T05:13:51;19.75;;;11.48;;
73585;SDS011;61865;50.232;18.614;2023-12-20T05:16:13;19.77;;;12.38;;
73585;SDS011;61865;50.232;18.614;2023-12-20T05:18:37;18.60;;;12.57;;
73585;SDS011;61865;50.232;18.614;2023-12-20T05:21:01;22.30;;;14.60;;
73585;SDS011;61865;50.232;18.614;2023-12-20T05:23:23;22.40;;;13.93;;
73585;SDS011;61865;50.232;18.614;2023-12-20T05:25:45;23.10;;;14.32;;
73585;SDS011;61865;50.232;18.614;2023-12-20T05:30:29;24.85;;;14.85;;
73585;SDS011;61865;50.232;18.614;2023-12-20T05:32:51;23.65;;;14.88;;
73585;SDS011;61865;50.232;18.614;2023-12-20T05:35:13;27.30;;;15.27;;
73585;SDS011;61865;50.232;18.614;2023-12-20T05:37:37;23.63;;;15.35;;
73585;SDS011;61865;50.232;18.614;2023-12-20T05:39:59;25.25;;;16.25;;
73585;SDS011;61865;50.232;18.614;2023-12-20T05:42:21;28.02;;;16.40;;
73585;SDS011;61865;50.232;18.614;2023-12-20T05:44:43;26.00;;;16.05;;
73585;SDS011;61865;50.232;18.614;2023-12-20T05:47:06;25.95;;;16.92;;
73585;SDS011;61865;50.232;18.614;2023-12-20T05:49:28;27.50;;;15.25;;
73585;SDS011;61865;50.232;18.614;2023-12-20T05:51:50;20.95;;;13.85;;
73585;SDS011;61865;50.232;18.614;2023-12-20T05:54:14;21.92;;;13.40;;
73585;SDS011;61865;50.232;18.614;2023-12-20T05:56:36;20.10;;;13.80;;
73585;SDS011;61865;50.232;18.614;2023-12-20T05:58:58;24.83;;;15.27;;
73585;SDS011;61865;50.232;18.614;2023-12-20T06:01:20;22.80;;;13.90;;
73585;SDS011;61865;50.232;18.614;2023-12-20T06:03:42;24.13;;;15.63;;
73585;SDS011;61865;50.232;18.614;2023-12-20T06:06:06;37.55;;;18.50;;
73585;SDS011;61865;50.232;18.614;2023-12-20T06:08:28;33.33;;;17.50;;
73585;SDS011;61865;50.232;18.614;2023-12-20T06:10:52;40.05;;;20.27;;
73585;SDS011;61865;50.232;18.614;2023-12-20T06:13:14;24.42;;;14.02;;
73585;SDS011;61865;50.232;18.614;2023-12-20T06:15:36;31.50;;;17.70;;
73585;SDS011;61865;50.232;18.614;2023-12-20T06:17:58;31.73;;;18.42;;
73585;SDS011;61865;50.232;18.614;2023-12-20T06:20:20;42.30;;;24.92;;
73585;SDS011;61865;50.232;18.614;2023-12-20T06:22:43;46.40;;;25.65;;
73585;SDS011;61865;50.232;18.614;2023-12-20T06:25:05;48.55;;;24.20;;
73585;SDS011;61865;50.232;18.614;2023-12-20T06:27:29;45.10;;;25.13;;
73585;SDS011;61865;50.232;18.614;2023-12-20T06:29:52;39.95;;;24.27;;
73585;SDS011;61865;50.232;18.614;2023-12-20T06:32:14;31.40;;;17.25;;
73585;SDS011;61865;50.232;18.614;2023-12-20T06:34:37;26.42;;;15.75;;
73585;SDS011;61865;50.232;18.614;2023-12-20T06:36:59;24.80;;;16.38;;
73585;SDS011;61865;50.232;18.614;2023-12-20T06:39:21;29.10;;;15.00;;
73585;SDS011;61865;50.232;18.614;2023-12-20T06:41:43;28.40;;;16.27;;
73585;SDS011;61865;50.232;18.614;2023-12-20T06:44:07;26.42;;;16.83;;
73585;SDS011;61865;50.232;18.614;2023-12-20T06:46:29;24.50;;;14.77;;
73585;SDS011;61865;50.232;18.614;2023-12-20T06:48:51;18.85;;;13.43;;
73585;SDS011;61865;50.232;18.614;2023-12-20T06:51:14;21.95;;;10.55;;
73585;SDS011;61865;50.232;18.614;2023-12-20T06:53:36;19.88;;;12.05;;
73585;SDS011;61865;50.232;18.614;2023-12-20T06:55:59;17.85;;;11.80;;
73585;SDS011;61865;50.232;18.614;2023-12-20T06:58:21;22.50;;;12.30;;
73585;SDS011;61865;50.232;18.614;2023-12-20T07:00:45;17.73;;;12.05;;
73585;SDS011;61865;50.232;18.614;2023-12-20T07:03:07;23.23;;;12.10;;
73585;SDS011;61865;50.232;18.614;2023-12-20T07:05:28;25.42;;;13.32;;
73585;SDS011;61865;50.232;18.614;2023-12-20T07:07:50;24.65;;;14.00;;
73585;SDS011;61865;50.232;18.614;2023-12-20T07:10:13;23.98;;;11.45;;
73585;SDS011;61865;50.232;18.614;2023-12-20T07:12:35;18.02;;;11.70;;
73585;SDS011;61865;50.232;18.614;2023-12-20T07:14:57;22.20;;;12.77;;
73585;SDS011;61865;50.232;18.614;2023-12-20T07:17:21;20.48;;;12.57;;
73585;SDS011;61865;50.232;18.614;2023-12-20T07:19:43;19.52;;;12.60;;
73585;SDS011;61865;50.232;18.614;2023-12-20T07:22:05;19.65;;;11.68;;
73585;SDS011;61865;50.232;18.614;2023-12-20T07:24:27;19.95;;;11.38;;
73585;SDS011;61865;50.232;18.614;2023-12-20T07:26:49;22.98;;;12.95;;
73585;SDS011;61865;50.232;18.614;2023-12-20T07:29:12;21.65;;;12.98;;
73585;SDS011;61865;50.232;18.614;2023-12-20T07:31:34;20.65;;;12.43;;
73585;SDS011;61865;50.232;18.614;2023-12-20T07:33:57;17.98;;;11.27;;
73585;SDS011;61865;50.232;18.614;2023-12-20T07:36:20;23.08;;;12.27;;
73585;SDS011;61865;50.232;18.614;2023-12-20T07:38:42;20.50;;;12.45;;
73585;SDS011;61865;50.232;18.614;2023-12-20T07:41:04;18.15;;;10.65;;
73585;SDS011;61865;50.232;18.614;2023-12-20T07:43:27;21.27;;;11.02;;
73585;SDS011;61865;50.232;18.614;2023-12-20T07:45:49;17.73;;;12.30;;
73585;SDS011;61865;50.232;18.614;2023-12-20T07:48:11;18.40;;;10.85;;
73585;SDS011;61865;50.232;18.614;2023-12-20T07:50:35;16.00;;;10.75;;
73585;SDS011;61865;50.232;18.614;2023-12-20T07:52:57;19.10;;;12.40;;
73585;SDS011;61865;50.232;18.614;2023-12-20T07:55:20;18.13;;;11.93;;
73585;SDS011;61865;50.232;18.614;2023-12-20T07:57:43;19.20;;;11.40;;
73585;SDS011;61865;50.232;18.614;2023-12-20T08:00:05;18.77;;;12.32;;
73585;SDS011;61865;50.232;18.614;2023-12-20T08:02:28;18.10;;;11.60;;
73585;SDS011;61865;50.232;18.614;2023-12-20T08:04:50;18.63;;;12.20;;
73585;SDS011;61865;50.232;18.614;2023-12-20T08:07:13;22.98;;;12.85;;
73585;SDS011;61865;50.232;18.614;2023-12-20T08:09:36;25.50;;;12.88;;
73585;SDS011;61865;50.232;18.614;2023-12-20T08:11:58;19.67;;;12.20;;
73585;SDS011;61865;50.232;18.614;2023-12-20T08:14:20;20.95;;;11.75;;
73585;SDS011;61865;50.232;18.614;2023-12-20T08:16:43;21.55;;;12.98;;
73585;SDS011;61865;50.232;18.614;2023-12-20T08:19:05;18.27;;;11.00;;
73585;SDS011;61865;50.232;18.614;2023-12-20T08:21:27;21.05;;;11.98;;
73585;SDS011;61865;50.232;18.614;2023-12-20T08:23:51;23.70;;;12.88;;
73585;SDS011;61865;50.232;18.614;2023-12-20T08:26:13;21.55;;;12.73;;
73585;SDS011;61865;50.232;18.614;2023-12-20T08:28:34;21.17;;;13.32;;
73585;SDS011;61865;50.232;18.614;2023-12-20T08:30:56;25.42;;;13.50;;
73585;SDS011;61865;50.232;18.614;2023-12-20T08:33:19;21.98;;;13.43;;
73585;SDS011;61865;50.232;18.614;2023-12-20T08:35:41;18.45;;;12.07;;
73585;SDS011;61865;50.232;18.614;2023-12-20T08:38:04;26.63;;;14.70;;
73585;SDS011;61865;50.232;18.614;2023-12-20T08:40:27;25.50;;;14.10;;
73585;SDS011;61865;50.232;18.614;2023-12-20T08:42:49;28.15;;;15.30;;
73585;SDS011;61865;50.232;18.614;2023-12-20T08:45:12;20.65;;;13.30;;
73585;SDS011;61865;50.232;18.614;2023-12-20T08:47:34;23.08;;;14.02;;
73585;SDS011;61865;50.232;18.614;2023-12-20T08:49:56;20.20;;;12.05;;
73585;SDS011;61865;50.232;18.614;2023-12-20T08:52:20;18.42;;;11.82;;
73585;SDS011;61865;50.232;18.614;2023-12-20T08:54:42;18.10;;;10.93;;
73585;SDS011;61865;50.232;18.614;2023-12-20T08:57:06;19.35;;;10.48;;
73585;SDS011;61865;50.232;18.614;2023-12-20T08:59:28;18.33;;;11.77;;
73585;SDS011;61865;50.232;18.614;2023-12-20T09:01:50;15.73;;;10.77;;
73585;SDS011;61865;50.232;18.614;2023-12-20T09:04:14;17.63;;;10.68;;
73585;SDS011;61865;50.232;18.614;2023-12-20T09:06:37;18.50;;;11.23;;
73585;SDS011;61865;50.232;18.614;2023-12-20T09:08:59;16.95;;;12.25;;
73585;SDS011;61865;50.232;18.614;2023-12-20T09:11:21;18.25;;;11.80;;
73585;SDS011;61865;50.232;18.614;2023-12-20T09:13:44;20.05;;;12.30;;
73585;SDS011;61865;50.232;18.614;2023-12-20T09:16:07;22.52;;;11.57;;
73585;SDS011;61865;50.232;18.614;2023-12-20T09:18:29;18.33;;;11.85;;
73585;SDS011;61865;50.232;18.614;2023-12-20T09:20:51;17.58;;;12.43;;
73585;SDS011;61865;50.232;18.614;2023-12-20T09:23:13;19.63;;;12.32;;
73585;SDS011;61865;50.232;18.614;2023-12-20T09:25:36;19.95;;;13.30;;
73585;SDS011;61865;50.232;18.614;2023-12-20T09:27:58;14.90;;;10.75;;
73585;SDS011;61865;50.232;18.614;2023-12-20T09:30:21;19.08;;;12.35;;
73585;SDS011;61865;50.232;18.614;2023-12-20T09:32:44;20.77;;;13.82;;
73585;SDS011;61865;50.232;18.614;2023-12-20T09:35:07;18.75;;;12.20;;
73585;SDS011;61865;50.232;18.614;2023-12-20T09:37:29;18.77;;;13.32;;
73585;SDS011;61865;50.232;18.614;2023-12-20T09:39:52;19.25;;;12.70;;
73585;SDS011;61865;50.232;18.614;2023-12-20T09:42:15;21.73;;;13.05;;
73585;SDS011;61865;50.232;18.614;2023-12-20T09:44:39;20.60;;;12.70;;
73585;SDS011;61865;50.232;18.614;2023-12-20T09:47:04;27.13;;;14.55;;
73585;SDS011;61865;50.232;18.614;2023-12-20T09:49:27;18.55;;;12.35;;
73585;SDS011;61865;50.232;18.614;2023-12-20T09:51:50;24.10;;;15.35;;
73585;SDS011;61865;50.232;18.614;2023-12-20T09:54:12;21.35;;;13.82;;
73585;SDS011;61865;50.232;18.614;2023-12-20T09:56:36;17.33;;;9.52;;
73585;SDS011;61865;50.232;18.614;2023-12-20T09:58:59;26.83;;;15.90;;
73585;SDS011;61865;50.232;18.614;2023-12-20T10:01:21;25.55;;;15.75;;
73585;SDS011;61865;50.232;18.614;2023-12-20T10:03:45;37.15;;;19.00;;
73585;SDS011;61865;50.232;18.614;2023-12-20T10:06:08;59.47;;;26.17;;
73585;SDS011;61865;50.232;18.614;2023-12-20T10:08:30;66.05;;;27.55;;
73585;SDS011;61865;50.232;18.614;2023-12-20T10:10:52;67.50;;;27.23;;
73585;SDS011;61865;50.232;18.614;2023-12-20T10:13:15;53.80;;;25.10;;
73585;SDS011;61865;50.232;18.614;2023-12-20T10:15:37;62.72;;;26.63;;
73585;SDS011;61865;50.232;18.614;2023-12-20T10:18:00;51.42;;;25.42;;
73585;SDS011;61865;50.232;18.614;2023-12-20T10:20:24;38.78;;;23.75;;
73585;SDS011;61865;50.232;18.614;2023-12-20T10:22:48;33.38;;;19.33;;
73585;SDS011;61865;50.232;18.614;2023-12-20T10:25:13;37.58;;;21.45;;
73585;SDS011;61865;50.232;18.614;2023-12-20T10:27:35;35.97;;;19.83;;
73585;SDS011;61865;50.232;18.614;2023-12-20T10:29:58;24.42;;;14.63;;
73585;SDS011;61865;50.232;18.614;2023-12-20T10:32:24;27.23;;;18.92;;
73585;SDS011;61865;50.232;18.614;2023-12-20T10:34:46;29.85;;;18.23;;
73585;SDS011;61865;50.232;18.614;2023-12-20T10:37:10;28.60;;;20.58;;
73585;SDS011;61865;50.232;18.614;2023-12-20T10:39:32;20.05;;;13.60;;
73585;SDS011;61865;50.232;18.614;2023-12-20T10:41:55;24.08;;;16.38;;
73585;SDS011;61865;50.232;18.614;2023-12-20T10:44:17;41.63;;;18.45;;
73585;SDS011;61865;50.232;18.614;2023-12-20T10:46:39;25.85;;;17.92;;
73585;SDS011;61865;50.232;18.614;2023-12-20T10:49:07;26.58;;;17.52;;
73585;SDS011;61865;50.232;18.614;2023-12-20T10:51:30;24.38;;;16.40;;
73585;SDS011;61865;50.232;18.614;2023-12-20T10:53:55;23.50;;;16.63;;
73585;SDS011;61865;50.232;18.614;2023-12-20T10:56:17;21.92;;;14.60;;
73585;SDS011;61865;50.232;18.614;2023-12-20T10:58:41;27.42;;;16.05;;
73585;SDS011;61865;50.232;18.614;2023-12-20T11:01:04;22.15;;;16.63;;
73585;SDS011;61865;50.232;18.614;2023-12-20T11:03:27;24.02;;;14.65;;
73585;SDS011;61865;50.232;18.614;2023-12-20T11:05:52;26.58;;;14.93;;
73585;SDS011;61865;50.232;18.614;2023-12-20T11:08:17;28.00;;;17.15;;
73585;SDS011;61865;50.232;18.614;2023-12-20T11:10:49;28.63;;;18.23;;
73585;SDS011;61865;50.232;18.614;2023-12-20T11:13:15;30.23;;;17.13;;
73585;SDS011;61865;50.232;18.614;2023-12-20T11:15:38;31.42;;;16.83;;
73585;SDS011;61865;50.232;18.614;2023-12-20T11:18:00;27.77;;;17.50;;
73585;SDS011;61865;50.232;18.614;2023-12-20T11:20:23;32.72;;;21.00;;
73585;SDS011;61865;50.232;18.614;2023-12-20T11:22:52;32.90;;;17.38;;
73585;SDS011;61865;50.232;18.614;2023-12-20T11:25:14;32.00;;;18.95;;
73585;SDS011;61865;50.232;18.614;2023-12-20T11:27:41;25.30;;;17.13;;
73585;SDS011;61865;50.232;18.614;2023-12-20T11:30:05;28.23;;;15.55;;
73585;SDS011;61865;50.232;18.614;2023-12-20T11:32:29;28.05;;;15.48;;
73585;SDS011;61865;50.232;18.614;2023-12-20T11:34:51;18.23;;;11.07;;
73585;SDS011;61865;50.232;18.614;2023-12-20T11:37:15;25.85;;;17.65;;
73585;SDS011;61865;50.232;18.614;2023-12-20T11:39:37;21.73;;;13.60;;
73585;SDS011;61865;50.232;18.614;2023-12-20T11:42:03;15.02;;;10.20;;
73585;SDS011;61865;50.232;18.614;2023-12-20T11:44:29;23.73;;;12.55;;
73585;SDS011;61865;50.232;18.614;2023-12-20T11:46:52;19.08;;;12.85;;
73585;SDS011;61865;50.232;18.614;2023-12-20T11:49:15;23.52;;;14.38;;
73585;SDS011;61865;50.232;18.614;2023-12-20T11:51:40;38.15;;;20.67;;
73585;SDS011;61865;50.232;18.614;2023-12-20T11:54:02;17.60;;;10.98;;
73585;SDS011;61865;50.232;18.614;2023-12-20T11:56:24;18.13;;;11.60;;
73585;SDS011;61865;50.232;18.614;2023-12-20T11:58:47;20.42;;;13.43;;
73585;SDS011;61865;50.232;18.614;2023-12-20T12:01:11;17.13;;;11.70;;
73585;SDS011;61865;50.232;18.614;2023-12-20T12:03:33;19.30;;;12.18;;
73585;SDS011;61865;50.232;18.614;2023-12-20T12:05:55;15.90;;;9.93;;
73585;SDS011;61865;50.232;18.614;2023-12-20T12:08:18;18.10;;;11.98;;
73585;SDS011;61865;50.232;18.614;2023-12-20T12:10:40;17.30;;;11.07;;
73585;SDS011;61865;50.232;18.614;2023-12-20T12:13:02;29.17;;;14.32;;
73585;SDS011;61865;50.232;18.614;2023-12-20T12:15:25;24.25;;;14.30;;
73585;SDS011;61865;50.232;18.614;2023-12-20T12:17:53;26.05;;;14.35;;
73585;SDS011;61865;50.232;18.614;2023-12-20T12:20:16;31.58;;;15.75;;
73585;SDS011;61865;50.232;18.614;2023-12-20T12:22:41;33.08;;;17.30;;
73585;SDS011;61865;50.232;18.614;2023-12-20T12:25:10;30.13;;;15.27;;
73585;SDS011;61865;50.232;18.614;2023-12-20T12:27:32;31.73;;;16.50;;
73585;SDS011;61865;50.232;18.614;2023-12-20T12:30:01;29.88;;;16.08;;
73585;SDS011;61865;50.232;18.614;2023-12-20T12:32:23;25.15;;;16.38;;
73585;SDS011;61865;50.232;18.614;2023-12-20T12:34:47;36.13;;;19.80;;
73585;SDS011;61865;50.232;18.614;2023-12-20T12:37:10;25.10;;;17.33;;
73585;SDS011;61865;50.232;18.614;2023-12-20T12:39:32;26.70;;;17.17;;
73585;SDS011;61865;50.232;18.614;2023-12-20T12:41:54;28.63;;;17.52;;
73585;SDS011;61865;50.232;18.614;2023-12-20T12:44:17;35.67;;;19.52;;
73585;SDS011;61865;50.232;18.614;2023-12-20T12:46:39;39.53;;;19.50;;
73585;SDS011;61865;50.232;18.614;2023-12-20T12:49:01;32.08;;;18.23;;
73585;SDS011;61865;50.232;18.614;2023-12-20T12:51:25;31.30;;;17.70;;
73585;SDS011;61865;50.232;18.614;2023-12-20T12:53:47;28.63;;;16.75;;
73585;SDS011;61865;50.232;18.614;2023-12-20T12:56:09;28.35;;;17.33;;
73585;SDS011;61865;50.232;18.614;2023-12-20T12:58:32;28.13;;;17.48;;
73585;SDS011;61865;50.232;18.614;2023-12-20T13:00:54;31.33;;;18.90;;
73585;SDS011;61865;50.232;18.614;2023-12-20T13:03:16;34.22;;;19.33;;
73585;SDS011;61865;50.232;18.614;2023-12-20T13:05:38;35.20;;;18.98;;
73585;SDS011;61865;50.232;18.614;2023-12-20T13:08:02;37.47;;;19.67;;
73585;SDS011;61865;50.232;18.614;2023-12-20T13:10:25;43.67;;;21.60;;
73585;SDS011;61865;50.232;18.614;2023-12-20T13:12:47;42.90;;;21.42;;
73585;SDS011;61865;50.232;18.614;2023-12-20T13:15:08;26.40;;;17.05;;
73585;SDS011;61865;50.232;18.614;2023-12-20T13:17:31;24.23;;;14.60;;
73585;SDS011;61865;50.232;18.614;2023-12-20T13:19:53;27.02;;;13.88;;
73585;SDS011;61865;50.232;18.614;2023-12-20T13:22:15;21.25;;;10.98;;
73585;SDS011;61865;50.232;18.614;2023-12-20T13:24:40;18.88;;;11.15;;
73585;SDS011;61865;50.232;18.614;2023-12-20T13:27:04;16.80;;;10.52;;
73585;SDS011;61865;50.232;18.614;2023-12-20T13:29:26;15.27;;;8.77;;
73585;SDS011;61865;50.232;18.614;2023-12-20T13:31:49;17.00;;;10.02;;
73585;SDS011;61865;50.232;18.614;2023-12-20T13:34:11;15.52;;;8.75;;
73585;SDS011;61865;50.232;18.614;2023-12-20T13:36:33;13.00;;;7.88;;
73585;SDS011;61865;50.232;18.614;2023-12-20T13:38:56;13.55;;;8.13;;
73585;SDS011;61865;50.232;18.614;2023-12-20T13:41:20;11.60;;;6.57;;
73585;SDS011;61865;50.232;18.614;2023-12-20T13:43:42;13.57;;;7.22;;
73585;SDS011;61865;50.232;18.614;2023-12-20T13:46:05;14.68;;;8.15;;
73585;SDS011;61865;50.232;18.614;2023-12-20T13:48:27;13.77;;;7.53;;
73585;SDS011;61865;50.232;18.614;2023-12-20T13:50:50;13.60;;;8.05;;
73585;SDS011;61865;50.232;18.614;2023-12-20T13:53:12;14.43;;;7.80;;
73585;SDS011;61865;50.232;18.614;2023-12-20T13:55:34;12.02;;;8.07;;
73585;SDS011;61865;50.232;18.614;2023-12-20T13:57:58;12.50;;;8.00;;
73585;SDS011;61865;50.232;18.614;2023-12-20T14:00:20;10.13;;;7.25;;
73585;SDS011;61865;50.232;18.614;2023-12-20T14:02:42;16.63;;;9.23;;
73585;SDS011;61865;50.232;18.614;2023-12-20T14:05:05;13.23;;;8.55;;
73585;SDS011;61865;50.232;18.614;2023-12-20T14:07:28;20.42;;;11.38;;
73585;SDS011;61865;50.232;18.614;2023-12-20T14:09:50;18.25;;;10.88;;
73585;SDS011;61865;50.232;18.614;2023-12-20T14:12:13;17.23;;;10.85;;
73585;SDS011;61865;50.232;18.614;2023-12-20T14:14:36;16.25;;;9.85;;
73585;SDS011;61865;50.232;18.614;2023-12-20T14:16:59;16.08;;;10.27;;
73585;SDS011;61865;50.232;18.614;2023-12-20T14:19:21;14.93;;;7.88;;
73585;SDS011;61865;50.232;18.614;2023-12-20T14:21:43;16.73;;;9.98;;
73585;SDS011;61865;50.232;18.614;2023-12-20T14:24:06;22.25;;;9.70;;
73585;SDS011;61865;50.232;18.614;2023-12-20T14:26:28;15.65;;;9.50;;
73585;SDS011;61865;50.232;18.614;2023-12-20T14:28:51;21.88;;;10.70;;
73585;SDS011;61865;50.232;18.614;2023-12-20T14:31:14;18.77;;;12.05;;
73585;SDS011;61865;50.232;18.614;2023-12-20T14:33:37;19.60;;;11.02;;
73585;SDS011;61865;50.232;18.614;2023-12-20T14:35:59;15.75;;;10.88;;
73585;SDS011;61865;50.232;18.614;2023-12-20T14:38:23;16.17;;;8.90;;
73585;SDS011;61865;50.232;18.614;2023-12-20T14:40:45;15.30;;;9.63;;
73585;SDS011;61865;50.232;18.614;2023-12-20T14:43:08;15.52;;;9.60;;
73585;SDS011;61865;50.232;18.614;2023-12-20T14:45:30;15.55;;;9.93;;
73585;SDS011;61865;50.232;18.614;2023-12-20T14:47:53;17.42;;;10.73;;
73585;SDS011;61865;50.232;18.614;2023-12-20T14:50:16;172.10;;;43.80;;
73585;SDS011;61865;50.232;18.614;2023-12-20T14:52:38;105.43;;;35.30;;
73585;SDS011;61865;50.232;18.614;2023-12-20T14:55:01;35.55;;;15.55;;
73585;SDS011;61865;50.232;18.614;2023-12-20T14:57:24;28.48;;;13.40;;
73585;SDS011;61865;50.232;18.614;2023-12-20T14:59:47;22.13;;;12.00;;
73585;SDS011;61865;50.232;18.614;2023-12-20T15:02:09;21.40;;;11.10;;
73585;SDS011;61865;50.232;18.614;2023-12-20T15:04:34;18.45;;;10.57;;
73585;SDS011;61865;50.232;18.614;2023-12-20T15:06:56;18.83;;;11.95;;
73585;SDS011;61865;50.232;18.614;2023-12-20T15:09:18;18.33;;;10.00;;
73585;SDS011;61865;50.232;18.614;2023-12-20T15:11:40;20.15;;;11.77;;
73585;SDS011;61865;50.232;18.614;2023-12-20T15:14:03;18.73;;;11.02;;
73585;SDS011;61865;50.232;18.614;2023-12-20T15:16:25;23.48;;;13.60;;
73585;SDS011;61865;50.232;18.614;2023-12-20T15:18:48;25.20;;;15.95;;
73585;SDS011;61865;50.232;18.614;2023-12-20T15:21:11;23.13;;;15.18;;
73585;SDS011;61865;50.232;18.614;2023-12-20T15:23:34;23.65;;;14.05;;
73585;SDS011;61865;50.232;18.614;2023-12-20T15:25:56;17.92;;;10.93;;
73585;SDS011;61865;50.232;18.614;2023-12-20T15:28:18;17.30;;;11.80;;
73585;SDS011;61865;50.232;18.614;2023-12-20T15:30:40;17.77;;;11.98;;
73585;SDS011;61865;50.232;18.614;2023-12-20T15:33:03;17.55;;;11.45;;
73585;SDS011;61865;50.232;18.614;2023-12-20T15:35:25;17.60;;;11.02;;
73585;SDS011;61865;50.232;18.614;2023-12-20T15:37:48;20.25;;;12.07;;
73585;SDS011;61865;50.232;18.614;2023-12-20T15:40:11;27.50;;;14.57;;
73585;SDS011;61865;50.232;18.614;2023-12-20T15:42:33;27.55;;;16.73;;
73585;SDS011;61865;50.232;18.614;2023-12-20T15:44:56;38.10;;;18.77;;
73585;SDS011;61865;50.232;18.614;2023-12-20T15:47:18;36.35;;;19.35;;
73585;SDS011;61865;50.232;18.614;2023-12-20T15:49:40;31.15;;;17.90;;
73585;SDS011;61865;50.232;18.614;2023-12-20T15:52:03;40.80;;;22.08;;
73585;SDS011;61865;50.232;18.614;2023-12-20T15:54:27;37.30;;;20.77;;
73585;SDS011;61865;50.232;18.614;2023-12-20T15:56:49;41.13;;;21.85;;
73585;SDS011;61865;50.232;18.614;2023-12-20T15:59:11;30.88;;;18.35;;
73585;SDS011;61865;50.232;18.614;2023-12-20T16:01:33;28.83;;;15.38;;
73585;SDS011;61865;50.232;18.614;2023-12-20T16:03:56;26.25;;;14.27;;
73585;SDS011;61865;50.232;18.614;2023-12-20T16:06:18;26.50;;;14.52;;
73585;SDS011;61865;50.232;18.614;2023-12-20T16:08:41;24.50;;;14.60;;
73585;SDS011;61865;50.232;18.614;2023-12-20T16:11:05;25.63;;;14.80;;
73585;SDS011;61865;50.232;18.614;2023-12-20T16:13:27;24.70;;;14.60;;
73585;SDS011;61865;50.232;18.614;2023-12-20T16:15:49;21.55;;;13.48;;
73585;SDS011;61865;50.232;18.614;2023-12-20T16:18:11;22.52;;;14.15;;
73585;SDS011;61865;50.232;18.614;2023-12-20T16:20:34;26.88;;;13.95;;
73585;SDS011;61865;50.232;18.614;2023-12-20T16:22:56;28.38;;;16.33;;
73585;SDS011;61865;50.232;18.614;2023-12-20T16:25:18;29.35;;;15.23;;
73585;SDS011;61865;50.232;18.614;2023-12-20T16:27:42;25.13;;;15.60;;
73585;SDS011;61865;50.232;18.614;2023-12-20T16:30:04;34.03;;;17.02;;
73585;SDS011;61865;50.232;18.614;2023-12-20T16:32:27;35.15;;;18.77;;
73585;SDS011;61865;50.232;18.614;2023-12-20T16:34:49;25.73;;;15.38;;
73585;SDS011;61865;50.232;18.614;2023-12-20T16:37:12;25.85;;;15.18;;
73585;SDS011;61865;50.232;18.614;2023-12-20T16:39:34;26.30;;;14.77;;
73585;SDS011;61865;50.232;18.614;2023-12-20T16:41:57;31.95;;;16.90;;
73585;SDS011;61865;50.232;18.614;2023-12-20T16:44:20;28.63;;;16.00;;
73585;SDS011;61865;50.232;18.614;2023-12-20T16:46:42;28.17;;;15.30;;
73585;SDS011;61865;50.232;18.614;2023-12-20T16:49:05;28.80;;;16.38;;
73585;SDS011;61865;50.232;18.614;2023-12-20T16:51:27;24.73;;;15.35;;
73585;SDS011;61865;50.232;18.614;2023-12-20T16:53:49;27.48;;;15.15;;